East Hardwick, Vermont
Current Conditions -  °F | °C
As of 4:35 PM on Friday 19 Dec 2014 (Local Time) from KCDA Reporting Station
Overcast Overcast  
Wind Chill: 13°   Ceiling: 1500
Heat Index: 22°   Visibility: 10mi
Dew Point: 16°   Wind: 7mph
Humidity: 78%   Direction: 320°NW
Pressure: 30.05"   Gusts: NA
Location:  44.52°N, 72.31°W
Report Text: KCDA 192135Z AUTO 32006KT 10SM OVC015 M06/M09 A3005 RMK AO2 T10561088
Loading
Personal Weather Stations






























Interactive Weather Map New forecast layout! Learn more

10-Day Weather Forecast

Advertisements
Track Severe Weather on mobile